Time;durP1;ratioP1;P1;durP2;ratioP2;P2;SDS_P1;SDS_P2;PMS_P1;PMS_P2;Temp;Humidity;BMP_temperature;BMP_pressure;BME280_temperature;BME280_humidity;BME280_pressure;Samples;Min_cycle;Max_cycle;Signal;HPM_P1;HPM_P2
2023/01/09 00:00:59;;;;;;;9.25;4.13;;;;;;;5.79;100.00;99281.25;4918898;29;20113;-75
2023/01/09 00:03:25;;;;;;;5.68;3.92;;;;;;;5.78;100.00;99274.22;4907543;29;20035;-77
2023/01/09 00:05:50;;;;;;;5.60;3.42;;;;;;;5.72;100.00;99271.19;4934202;29;20579;-77
2023/01/09 00:08:15;;;;;;;6.45;3.90;;;;;;;5.86;100.00;99277.75;4918354;29;20031;-78
2023/01/09 00:10:41;;;;;;;6.15;4.35;;;;;;;5.83;100.00;99277.25;4901530;29;20036;-73
2023/01/09 00:13:08;;;;;;;5.68;3.47;;;;;;;5.82;100.00;99264.84;4900390;29;20478;-73
2023/01/09 00:15:34;;;;;;;7.90;4.57;;;;;;;5.75;100.00;99259.28;4900044;29;20035;-74
2023/01/09 00:17:59;;;;;;;7.63;4.10;;;;;;;5.76;100.00;99260.13;4930150;29;20036;-73
2023/01/09 00:20:25;;;;;;;8.02;4.60;;;;;;;5.67;100.00;99262.81;4918807;29;20032;-73
2023/01/09 00:22:50;;;;;;;7.72;4.35;;;;;;;5.64;100.00;99257.75;4935863;29;20058;-74
2023/01/09 00:25:15;;;;;;;6.43;4.00;;;;;;;5.68;100.00;99253.75;4919104;29;20094;-74
2023/01/09 00:27:41;;;;;;;7.60;4.75;;;;;;;5.70;100.00;99241.00;4935764;29;20040;-73
2023/01/09 00:30:07;;;;;;;10.60;4.22;;;;;;;5.61;100.00;99236.63;4918591;29;20360;-71
2023/01/09 00:32:33;;;;;;;7.22;4.35;;;;;;;5.55;100.00;99237.28;4950216;28;20051;-74
2023/01/09 00:34:58;;;;;;;11.30;4.20;;;;;;;5.57;100.00;99229.06;4918741;29;20070;-72
2023/01/09 00:37:23;;;;;;;5.97;3.58;;;;;;;5.63;100.00;99239.97;4918505;29;20031;-72
2023/01/09 00:39:49;;;;;;;7.13;3.80;;;;;;;5.66;100.00;99245.00;4950153;28;20031;-72
2023/01/09 00:42:19;;;;;;;7.32;3.60;;;;;;;5.58;100.00;99247.69;4950258;29;20060;-71
2023/01/09 00:44:49;;;;;;;6.47;3.17;;;;;;;5.69;100.00;99239.31;4935656;29;20048;-72
2023/01/09 00:47:23;;;;;;;5.50;2.95;;;;;;;5.76;100.00;99246.69;4949819;28;20078;-72
2023/01/09 00:49:49;;;;;;;5.35;3.45;;;;;;;5.78;100.00;99233.94;4933893;29;20031;-72
2023/01/09 00:52:15;;;;;;;8.20;3.90;;;;;;;5.88;100.00;99242.69;4918483;29;20035;-72
2023/01/09 00:54:41;;;;;;;7.90;3.85;;;;;;;5.93;100.00;99229.59;4934962;29;20135;-71
2023/01/09 00:57:11;;;;;;;6.30;3.72;;;;;;;5.88;100.00;99231.94;4918173;29;20032;-72
2023/01/09 00:59:37;;;;;;;5.18;3.00;;;;;;;5.90;100.00;99229.91;4918161;29;20055;-75
2023/01/09 01:02:02;;;;;;;6.07;3.45;;;;;;;5.85;100.00;99233.09;4949926;28;20059;-73
2023/01/09 01:09:55;;;;;;;8.93;3.63;;;;;;;5.92;100.00;99217.19;4934696;29;20043;-72
2023/01/09 01:12:21;;;;;;;5.82;3.22;;;;;;;5.89;100.00;99225.56;4918553;29;20042;-72
2023/01/09 01:14:46;;;;;;;8.07;3.80;;;;;;;5.89;100.00;99225.56;4917783;29;20038;-72
2023/01/09 01:17:12;;;;;;;7.10;3.33;;;;;;;5.99;100.00;99223.53;4917627;29;20042;-72
2023/01/09 01:19:37;;;;;;;4.40;2.85;;;;;;;5.87;100.00;99224.88;4917956;29;20038;-72
2023/01/09 01:22:03;;;;;;;5.88;3.38;;;;;;;5.92;100.00;99217.19;4949366;29;20028;-72
2023/01/09 01:24:28;;;;;;;4.75;3.30;;;;;;;5.85;100.00;99216.16;4949953;28;20047;-73
2023/01/09 01:26:53;;;;;;;8.57;3.63;;;;;;;5.86;100.00;99207.06;4934089;29;20071;-72
2023/01/09 01:29:19;;;;;;;6.30;3.85;;;;;;;5.78;100.00;99215.13;4917791;29;20122;-72
2023/01/09 01:31:44;;;;;;;7.70;3.53;;;;;;;5.87;100.00;99208.78;4917529;29;20086;-73
2023/01/09 01:34:09;;;;;;;6.90;3.20;;;;;;;5.78;100.00;99207.09;4949903;29;20035;-72
2023/01/09 01:36:35;;;;;;;6.25;3.40;;;;;;;5.83;100.00;99220.84;4932898;29;20080;-72
2023/01/09 01:39:00;;;;;;;9.48;3.30;;;;;;;5.79;100.00;99211.44;4935181;29;20046;-72
2023/01/09 01:41:29;;;;;;;5.28;3.25;;;;;;;5.95;100.00;99208.78;4948913;28;20493;-73
2023/01/09 01:44:25;;;;;;;9.15;3.55;;;;;;;5.91;100.00;99210.13;4948732;28;20047;-73
2023/01/09 01:46:52;;;;;;;5.68;3.45;;;;;;;5.93;100.00;99208.97;4948692;28;20031;-73
2023/01/09 01:49:19;;;;;;;8.85;3.65;;;;;;;5.90;100.00;99205.75;4917473;29;20126;-73
2023/01/09 01:51:50;;;;;;;6.07;3.60;;;;;;;5.90;100.00;99197.69;4934080;29;20059;-73
2023/01/09 01:54:25;;;;;;;7.30;4.60;;;;;;;5.96;100.00;99197.03;4928389;29;20036;-73
2023/01/09 01:56:58;;;;;;;9.45;3.92;;;;;;;6.05;100.00;99190.63;4897300;29;20028;-73
2023/01/09 01:59:49;;;;;;;10.15;3.88;;;;;;;5.99;100.00;99186.78;4943708;29;20026;-73
2023/01/09 02:02:18;;;;;;;7.43;3.55;;;;;;;6.11;100.00;99181.88;4927889;29;20124;-73
2023/01/09 02:04:45;;;;;;;5.70;3.35;;;;;;;6.06;100.00;99186.94;4901208;29;20097;-72
2023/01/09 02:07:11;;;;;;;6.07;3.70;;;;;;;6.02;100.00;99180.25;4911735;29;20159;-75
2023/01/09 02:09:39;;;;;;;4.65;2.95;;;;;;;6.04;100.00;99186.28;4905782;29;20348;-72
2023/01/09 02:12:22;;;;;;;6.70;3.38;;;;;;;6.15;100.00;99177.88;4932173;29;20028;-73
2023/01/09 02:14:50;;;;;;;5.63;2.95;;;;;;;6.10;100.00;99182.91;4944537;29;20115;-72
2023/01/09 02:17:31;;;;;;;7.13;3.70;;;;;;;6.25;100.00;99181.19;4906732;29;20036;-72
2023/01/09 02:20:18;;;;;;;7.05;2.78;;;;;;;6.25;100.00;99170.44;4912395;29;20024;-72
2023/01/09 02:23:02;;;;;;;5.72;3.15;;;;;;;6.28;100.00;99168.44;4927005;29;20067;-73
2023/01/09 02:25:39;;;;;;;8.98;3.00;;;;;;;6.46;100.00;99163.66;4912540;29;20088;-73
2023/01/09 02:28:36;;;;;;;6.43;3.15;;;;;;;6.35;100.00;99154.13;4921778;29;20063;-73
2023/01/09 02:31:44;;;;;;;9.80;3.60;;;;;;;6.43;100.00;99150.56;4917715;29;20404;-73
2023/01/09 02:34:29;;;;;;;6.00;3.03;;;;;;;6.51;100.00;99153.22;4931981;29;20058;-73
2023/01/09 02:37:09;;;;;;;7.25;3.15;;;;;;;6.52;100.00;99152.22;4942783;28;20033;-73
2023/01/09 02:39:42;;;;;;;6.13;3.00;;;;;;;6.58;100.00;99148.81;4910839;29;20060;-73
2023/01/09 02:42:16;;;;;;;10.25;3.35;;;;;;;6.65;100.00;99141.75;4913744;29;20039;-73
2023/01/09 02:44:42;;;;;;;4.43;2.72;;;;;;;6.75;100.00;99138.81;4920780;29;20032;-73
2023/01/09 02:47:30;;;;;;;4.70;2.72;;;;;;;6.72;100.00;99140.03;4919703;29;20028;-73
2023/01/09 02:49:59;;;;;;;6.20;2.80;;;;;;;6.77;100.00;99148.38;4912793;29;20463;-73
2023/01/09 02:53:06;;;;;;;5.93;2.72;;;;;;;6.80;100.00;99153.41;4912430;29;20032;-73
2023/01/09 02:56:02;;;;;;;12.20;3.35;;;;;;;6.73;100.00;99140.84;4916623;29;20107;-73
2023/01/09 02:58:49;;;;;;;10.45;2.97;;;;;;;6.72;100.00;99145.41;4923693;29;20028;-73
2023/01/09 03:01:43;;;;;;;8.05;2.55;;;;;;;6.71;100.00;99143.69;4924791;29;20021;-73
2023/01/09 03:04:43;;;;;;;6.65;3.22;;;;;;;6.65;100.00;99139.06;4936152;28;20028;-73
2023/01/09 03:07:24;;;;;;;5.95;2.50;;;;;;;6.78;100.00;99139.31;4912137;29;20553;-75
2023/01/09 03:09:52;;;;;;;3.88;2.50;;;;;;;6.70;100.00;99136.66;4912568;29;20119;-73
2023/01/09 03:12:24;;;;;;;6.07;2.60;;;;;;;6.69;100.00;99140.34;4912849;29;20123;-73
2023/01/09 03:14:56;;;;;;;7.60;2.67;;;;;;;6.62;100.00;99139.38;4927593;29;20050;-74
2023/01/09 03:17:32;;;;;;;5.38;2.88;;;;;;;6.62;100.00;99131.31;4914699;29;20036;-75
2023/01/09 03:20:01;;;;;;;8.93;3.45;;;;;;;6.63;100.00;99130.31;4919194;29;20546;-75
2023/01/09 03:22:26;;;;;;;4.50;2.55;;;;;;;6.76;100.00;99130.56;4904503;29;20035;-75
2023/01/09 03:24:52;;;;;;;3.63;2.35;;;;;;;6.75;100.00;99139.66;4918653;29;20103;-75
2023/01/09 03:27:17;;;;;;;5.03;2.85;;;;;;;6.68;100.00;99127.09;4907277;29;20028;-75
2023/01/09 03:29:43;;;;;;;8.30;3.00;;;;;;;6.64;100.00;99121.22;4925694;29;20028;-75
2023/01/09 03:32:08;;;;;;;6.72;2.83;;;;;;;6.70;100.00;99125.91;4907910;29;20028;-75
2023/01/09 03:34:33;;;;;;;5.53;3.08;;;;;;;6.72;100.00;99129.28;4914894;29;20075;-73
2023/01/09 03:36:59;;;;;;;5.63;3.00;;;;;;;6.85;100.00;99128.69;4910504;29;20043;-74
2023/01/09 03:39:24;;;;;;;9.40;3.42;;;;;;;6.77;100.00;99129.56;4923863;29;20032;-73
2023/01/09 03:41:49;;;;;;;12.00;3.42;;;;;;;6.85;100.00;99135.94;4901098;29;20028;-74
2023/01/09 03:44:15;;;;;;;7.57;2.97;;;;;;;6.71;100.00;99132.94;4914732;29;20052;-73
2023/01/09 03:46:40;;;;;;;6.50;2.70;;;;;;;6.82;100.00;99130.88;4910585;29;20083;-74
2023/01/09 03:49:05;;;;;;;5.32;3.05;;;;;;;6.70;100.00;99128.59;4920682;29;20031;-75
2023/01/09 03:51:31;;;;;;;5.50;2.50;;;;;;;6.79;100.00;99129.41;4911528;29;20066;-73
2023/01/09 03:53:56;;;;;;;4.32;2.53;;;;;;;6.79;100.00;99130.25;4907471;29;20083;-72
2023/01/09 03:56:21;;;;;;;5.28;2.80;;;;;;;6.83;100.00;99125.31;4905296;29;20086;-75
2023/01/09 03:58:48;;;;;;;4.40;3.05;;;;;;;6.82;100.00;99123.66;4927184;29;20499;-74
2023/01/09 04:01:14;;;;;;;6.05;2.83;;;;;;;6.64;100.00;99126.59;4907853;29;20110;-74
2023/01/09 04:03:40;;;;;;;4.93;2.83;;;;;;;6.57;100.00;99120.25;4901753;29;20112;-73
2023/01/09 04:06:06;;;;;;;5.35;2.95;;;;;;;6.58;100.00;99121.91;4898882;29;20020;-73
2023/01/09 04:08:31;;;;;;;5.15;2.83;;;;;;;6.67;100.00;99120.88;4914924;29;20711;-73
2023/01/09 04:10:57;;;;;;;5.88;2.83;;;;;;;6.70;100.00;99115.13;4916980;29;20059;-73
2023/01/09 04:13:22;;;;;;;8.77;3.35;;;;;;;6.59;100.00;99115.56;4913671;29;20016;-73
2023/01/09 04:15:47;;;;;;;6.10;3.08;;;;;;;6.55;100.00;99108.00;4918360;29;20090;-73
2023/01/09 04:18:13;;;;;;;5.22;2.75;;;;;;;6.55;100.00;99108.84;4899519;29;20024;-75
2023/01/09 04:20:38;;;;;;;6.72;3.38;;;;;;;6.68;100.00;99117.19;4899159;29;20400;-73
2023/01/09 04:23:04;;;;;;;11.45;3.40;;;;;;;6.54;100.00;99109.88;4916524;29;20047;-73
2023/01/09 04:25:30;;;;;;;8.00;4.05;;;;;;;6.57;100.00;99108.66;4903046;29;20102;-73
2023/01/09 04:27:55;;;;;;;5.90;3.47;;;;;;;6.63;100.00;99102.59;4916133;29;20039;-75
2023/01/09 04:30:21;;;;;;;5.70;3.53;;;;;;;6.65;100.00;99096.03;4899527;29;20043;-75
2023/01/09 04:32:46;;;;;;;8.75;3.30;;;;;;;6.67;100.00;99094.00;4931265;29;20085;-73
2023/01/09 04:35:11;;;;;;;5.38;3.08;;;;;;;6.60;100.00;99103.78;4899738;29;20523;-73
2023/01/09 04:37:38;;;;;;;7.00;3.15;;;;;;;6.54;100.00;99093.72;4900270;29;20076;-73
2023/01/09 04:40:10;;;;;;;8.23;4.13;;;;;;;6.54;100.00;99093.72;4915023;29;20083;-72
2023/01/09 04:42:37;;;;;;;4.85;3.63;;;;;;;6.59;100.00;99096.72;4902450;29;20032;-72
2023/01/09 04:45:05;;;;;;;7.43;3.22;;;;;;;6.66;100.00;99095.00;4901237;29;20028;-72
2023/01/09 04:47:31;;;;;;;6.30;3.47;;;;;;;6.64;100.00;99099.72;4920362;29;20024;-72
2023/01/09 04:49:57;;;;;;;11.18;4.15;;;;;;;6.61;100.00;99092.00;4898488;29;20084;-72
2023/01/09 04:52:22;;;;;;;7.78;4.00;;;;;;;6.55;100.00;99092.72;4917733;29;20028;-72
2023/01/09 04:54:47;;;;;;;8.65;3.97;;;;;;;6.58;100.00;99103.09;4899142;29;20031;-73
2023/01/09 04:57:13;;;;;;;11.35;4.38;;;;;;;6.62;100.00;99106.28;4910984;29;20116;-73
2023/01/09 04:59:38;;;;;;;7.20;4.10;;;;;;;6.67;100.00;99099.38;4895117;29;20036;-73
2023/01/09 05:02:03;;;;;;;14.90;5.18;;;;;;;6.55;100.00;99106.16;4898398;29;20373;-74
2023/01/09 05:04:29;;;;;;;9.77;4.47;;;;;;;6.58;100.00;99103.09;4898502;29;20028;-74
2023/01/09 05:06:54;;;;;;;13.52;4.97;;;;;;;6.65;100.00;99096.03;4929672;29;20115;-74
2023/01/09 05:09:20;;;;;;;12.05;4.90;;;;;;;6.68;100.00;99101.03;4930652;29;20035;-74
2023/01/09 05:11:46;;;;;;;8.27;4.72;;;;;;;6.58;100.00;99086.13;4898327;29;20035;-74
2023/01/09 05:14:11;;;;;;;14.80;4.95;;;;;;;6.52;100.00;99090.41;4915492;29;20031;-73
2023/01/09 05:16:37;;;;;;;9.43;5.32;;;;;;;6.62;100.00;99091.00;4900109;29;20078;-73
2023/01/09 05:19:02;;;;;;;15.57;5.88;;;;;;;6.60;100.00;99094.88;4916535;29;20043;-75
2023/01/09 05:21:27;;;;;;;14.18;5.45;;;;;;;6.41;100.00;99088.09;4911378;29;20164;-72
2023/01/09 05:23:53;;;;;;;15.30;6.30;;;;;;;6.44;100.00;99095.78;4917109;29;20391;-73
2023/01/09 05:26:23;;;;;;;7.97;5.13;;;;;;;6.51;100.00;99094.06;4907710;29;20028;-75
2023/01/09 05:28:50;;;;;;;21.58;6.93;;;;;;;6.59;100.00;99107.50;4913929;29;20030;-75
2023/01/09 05:31:16;;;;;;;14.07;5.85;;;;;;;6.55;100.00;99098.09;4904899;29;20046;-75
2023/01/09 05:33:41;;;;;;;14.40;5.95;;;;;;;6.45;100.00;99102.84;4898405;29;20028;-75
2023/01/09 05:36:07;;;;;;;13.70;6.10;;;;;;;6.43;100.00;99096.81;4905254;29;20032;-75
2023/01/09 05:38:32;;;;;;;11.60;5.47;;;;;;;6.49;100.00;99093.41;4898212;29;20047;-75
2023/01/09 05:40:57;;;;;;;11.18;5.95;;;;;;;6.51;100.00;99099.44;4905383;29;20033;-75
2023/01/09 05:43:23;;;;;;;14.98;8.10;;;;;;;6.55;100.00;99098.09;4913527;29;20034;-75
2023/01/09 05:45:48;;;;;;;11.73;6.53;;;;;;;6.53;100.00;99102.81;4905507;29;20032;-75
2023/01/09 05:48:13;;;;;;;11.07;6.40;;;;;;;6.57;100.00;99097.91;4901430;29;20110;-72
2023/01/09 05:50:39;;;;;;;14.40;7.05;;;;;;;6.61;100.00;99105.44;4909640;29;20031;-75
2023/01/09 05:53:05;;;;;;;18.90;6.95;;;;;;;6.66;100.00;99095.00;4905778;29;20266;-75
2023/01/09 05:55:31;;;;;;;12.32;6.57;;;;;;;6.75;100.00;99096.63;4897094;29;20032;-73
2023/01/09 05:57:56;;;;;;;14.63;6.85;;;;;;;6.62;100.00;99095.53;4897466;29;20507;-74
2023/01/09 06:00:22;;;;;;;15.50;7.00;;;;;;;6.70;100.00;99100.84;4909956;29;20036;-75
2023/01/09 06:02:47;;;;;;;9.50;6.60;;;;;;;6.73;100.00;99097.84;4902087;29;20032;-73
2023/01/09 06:05:13;;;;;;;14.25;7.50;;;;;;;6.66;100.00;99097.69;4909785;29;20034;-72
2023/01/09 06:07:39;;;;;;;10.98;7.13;;;;;;;6.66;100.00;99102.25;4920992;29;20068;-72
2023/01/09 06:10:07;;;;;;;17.17;6.38;;;;;;;6.79;100.00;99087.19;4906116;29;20028;-73
2023/01/09 06:12:32;;;;;;;12.75;6.20;;;;;;;6.76;100.00;99095.59;4911156;29;20027;-72
2023/01/09 06:14:57;;;;;;;7.65;4.22;;;;;;;6.62;100.00;99101.75;4920147;29;20038;-72
2023/01/09 06:17:23;;;;;;;7.88;4.28;;;;;;;6.75;100.00;99096.63;4896839;29;20036;-72
2023/01/09 06:19:50;;;;;;;6.03;4.25;;;;;;;6.65;100.00;99096.03;4897837;29;20051;-72
2023/01/09 06:22:15;;;;;;;11.35;3.63;;;;;;;6.64;100.00;99113.16;4897216;29;20110;-75
2023/01/09 06:24:41;;;;;;;7.10;3.53;;;;;;;6.67;100.00;99112.81;4913626;29;20123;-74
2023/01/09 06:27:06;;;;;;;6.47;3.35;;;;;;;6.65;100.00;99112.16;4898428;29;20028;-74
2023/01/09 06:29:32;;;;;;;10.70;3.80;;;;;;;6.67;100.00;99111.97;4897070;29;20046;-75
2023/01/09 06:31:57;;;;;;;9.32;4.10;;;;;;;6.72;100.00;99112.28;4913370;29;20063;-74
2023/01/09 06:34:22;;;;;;;8.73;4.40;;;;;;;7.01;100.00;99120.50;4897290;29;20087;-74
2023/01/09 06:36:48;;;;;;;5.65;4.00;;;;;;;7.13;100.00;99131.69;4912105;29;20024;-71
2023/01/09 06:39:13;;;;;;;12.73;4.47;;;;;;;7.10;100.00;99132.03;4897254;29;20025;-72
2023/01/09 06:41:38;;;;;;;10.90;4.43;;;;;;;7.12;100.00;99135.41;4913893;29;20440;-72
2023/01/09 06:44:04;;;;;;;7.07;4.47;;;;;;;7.21;100.00;99139.72;4920464;29;20065;-72
2023/01/09 06:46:29;;;;;;;16.25;5.55;;;;;;;7.31;100.00;99148.41;4909959;29;20017;-72
2023/01/09 06:48:54;;;;;;;11.88;4.82;;;;;;;7.15;100.00;99143.13;4913992;29;20035;-73
2023/01/09 06:51:20;;;;;;;10.30;4.55;;;;;;;7.27;100.00;99144.38;4928156;29;20095;-72
2023/01/09 06:53:45;;;;;;;25.48;5.97;;;;;;;7.21;100.00;99137.00;4928681;29;20027;-72
2023/01/09 06:56:10;;;;;;;12.05;6.28;;;;;;;7.14;100.00;99128.00;4896738;29;20044;-72
2023/01/09 06:58:36;;;;;;;8.23;5.45;;;;;;;7.14;100.00;99137.91;4896732;29;20020;-72
2023/01/09 07:01:01;;;;;;;11.70;6.55;;;;;;;7.31;100.00;99143.00;4896306;29;20039;-72
2023/01/09 07:03:26;;;;;;;15.10;7.20;;;;;;;7.37;100.00;99143.28;4913937;29;20028;-72
2023/01/09 07:05:52;;;;;;;7.70;5.10;;;;;;;7.56;100.00;99145.47;4902442;29;20032;-71
2023/01/09 07:08:17;;;;;;;15.90;6.03;;;;;;;7.46;100.00;99142.22;4902615;29;20107;-71
2023/01/09 07:10:43;;;;;;;11.18;5.00;;;;;;;7.60;100.00;99144.13;4902722;29;20484;-72
2023/01/09 07:13:09;;;;;;;10.73;5.05;;;;;;;7.47;100.00;99150.13;4919712;29;20035;-72
2023/01/09 07:15:35;;;;;;;15.02;6.63;;;;;;;7.37;100.00;99156.75;4932887;29;20035;-71
2023/01/09 07:18:01;;;;;;;7.75;5.80;;;;;;;7.35;100.00;99157.78;4927293;29;20406;-71
2023/01/09 07:20:26;;;;;;;15.18;6.57;;;;;;;7.51;100.00;99162.22;4903803;29;20081;-71
2023/01/09 07:22:52;;;;;;;13.38;7.05;;;;;;;7.44;100.00;99165.81;4902266;29;20120;-73
2023/01/09 07:25:18;;;;;;;17.30;6.60;;;;;;;7.30;100.00;99167.41;4905856;29;20027;-71
2023/01/09 07:27:43;;;;;;;12.23;6.10;;;;;;;7.29;100.00;99174.63;4903026;29;20022;-70
2023/01/09 07:30:09;;;;;;;14.27;7.55;;;;;;;7.40;100.00;99180.63;4924302;29;20067;-71
2023/01/09 07:32:35;;;;;;;11.27;6.80;;;;;;;7.32;100.00;99179.69;4932039;29;20024;-71
2023/01/09 07:35:00;;;;;;;11.48;7.40;;;;;;;7.18;100.00;99183.13;4926391;29;20039;-72
2023/01/09 07:37:25;;;;;;;19.15;8.60;;;;;;;7.21;100.00;99193.53;4902730;29;20028;-70
2023/01/09 07:39:51;;;;;;;13.23;7.97;;;;;;;7.11;100.00;99198.31;4911866;29;20028;-72
2023/01/09 07:42:16;;;;;;;10.73;7.53;;;;;;;7.06;100.00;99201.53;4904335;29;20024;-70
2023/01/09 07:44:42;;;;;;;18.33;9.40;;;;;;;7.22;100.00;99205.97;4902871;29;20106;-70
2023/01/09 07:47:07;;;;;;;12.35;8.10;;;;;;;7.14;100.00;99207.88;4902033;29;20103;-71
2023/01/09 07:49:32;;;;;;;12.48;7.65;;;;;;;7.12;100.00;99210.75;4924901;29;20498;-70
2023/01/09 07:51:58;;;;;;;13.55;8.70;;;;;;;7.12;100.00;99221.53;4921079;29;20055;-72
2023/01/09 07:54:23;;;;;;;12.60;8.63;;;;;;;6.99;100.00;99221.25;4919326;29;20027;-72
2023/01/09 07:56:49;;;;;;;12.27;10.07;;;;;;;7.10;100.00;99233.47;4893138;29;20032;-71
2023/01/09 07:59:14;;;;;;;19.83;10.98;;;;;;;7.11;100.00;99229.75;4904459;29;20036;-71
2023/01/09 08:01:40;;;;;;;14.60;9.85;;;;;;;7.01;100.00;99235.38;4887675;29;20046;-71
2023/01/09 08:04:05;;;;;;;13.27;9.27;;;;;;;7.05;100.00;99242.09;4899185;29;20027;-73
2023/01/09 08:06:31;;;;;;;16.05;10.90;;;;;;;7.00;100.00;99247.97;4903708;29;20444;-73
2023/01/09 08:08:57;;;;;;;14.63;9.60;;;;;;;6.95;100.00;99246.81;4922337;29;20059;-72
2023/01/09 08:11:23;;;;;;;13.88;10.77;;;;;;;7.19;100.00;99253.94;4907390;29;20250;-73
2023/01/09 08:13:48;;;;;;;15.85;10.55;;;;;;;7.11;100.00;99246.75;4898770;29;20043;-72
2023/01/09 08:16:14;;;;;;;17.13;11.85;;;;;;;7.08;100.00;99236.34;4903248;29;20063;-72
2023/01/09 08:18:39;;;;;;;21.50;11.50;;;;;;;7.12;100.00;99250.28;4900509;29;20093;-72
2023/01/09 08:21:05;;;;;;;17.90;11.25;;;;;;;7.20;100.00;99251.06;4915580;29;20032;-72
2023/01/09 08:23:30;;;;;;;17.42;11.00;;;;;;;7.25;100.00;99248.69;4922531;29;20028;-72
2023/01/09 08:25:55;;;;;;;18.13;11.52;;;;;;;7.15;100.00;99264.22;4918383;29;20038;-72
2023/01/09 08:28:20;;;;;;;18.75;10.43;;;;;;;7.05;100.00;99258.22;4918952;29;20019;-72
2023/01/09 08:30:46;;;;;;;16.90;9.55;;;;;;;7.01;100.00;99271.19;4896542;29;20032;-71
2023/01/09 08:33:12;;;;;;;24.83;10.30;;;;;;;7.03;100.00;99260.22;4908853;29;20027;-75
2023/01/09 08:35:37;;;;;;;20.77;10.80;;;;;;;7.02;100.00;99269.31;4916238;29;20016;-71
2023/01/09 08:38:03;;;;;;;16.92;10.88;;;;;;;7.13;100.00;99271.63;4903197;29;20028;-71
2023/01/09 08:40:28;;;;;;;17.85;9.95;;;;;;;7.23;100.00;99283.00;4922747;29;20026;-72
2023/01/09 08:48:21;;;;;;;27.67;11.05;;;;;;;6.84;100.00;99276.78;4914576;29;20020;-71
2023/01/09 08:50:47;;;;;;;26.77;11.38;;;;;;;6.86;100.00;99280.16;4919171;29;20111;-71
2023/01/09 08:53:14;;;;;;;22.70;11.30;;;;;;;6.90;100.00;99281.47;4917210;29;20098;-72
2023/01/09 08:55:39;;;;;;;21.85;10.77;;;;;;;6.89;100.00;99279.81;4918053;29;20575;-72
2023/01/09 08:58:05;;;;;;;20.20;11.05;;;;;;;6.67;100.00;99279.53;4921893;29;20031;-73
2023/01/09 09:00:30;;;;;;;27.27;13.15;;;;;;;6.71;100.00;99309.59;4917853;29;20039;-72
2023/01/09 09:02:57;;;;;;;32.42;13.68;;;;;;;6.53;100.00;99297.22;4903032;29;21336;-72
2023/01/09 09:05:24;;;;;;;35.88;13.75;;;;;;;6.68;100.00;99300.03;4898355;29;20119;-71
2023/01/09 09:07:53;;;;;;;22.45;13.00;;;;;;;6.67;100.00;99309.13;4924891;29;20031;-72
2023/01/09 09:10:20;;;;;;;30.42;15.48;;;;;;;6.65;100.00;99311.16;4915369;29;20032;-72
2023/01/09 09:12:53;;;;;;;36.38;13.70;;;;;;;6.69;100.00;99312.47;4910454;29;20032;-71
2023/01/09 09:15:22;;;;;;;29.27;13.25;;;;;;;6.80;100.00;99304.03;4902641;29;20058;-73
2023/01/09 09:17:50;;;;;;;31.63;13.80;;;;;;;6.71;100.00;99314.97;4918947;29;20616;-72
2023/01/09 09:20:15;;;;;;;30.00;13.10;;;;;;;6.86;100.00;99331.28;4917910;29;20038;-71
2023/01/09 09:22:41;;;;;;;23.88;12.88;;;;;;;6.90;100.00;99313.75;4929149;29;20115;-73
2023/01/09 09:25:06;;;;;;;24.50;12.75;;;;;;;6.93;100.00;99316.13;4939222;28;20032;-73
2023/01/09 09:27:33;;;;;;;39.90;15.02;;;;;;;7.21;100.00;99311.97;4918486;29;20024;-71
2023/01/09 09:29:58;;;;;;;33.65;13.52;;;;;;;7.18;100.00;99320.41;4913510;29;20115;-71
2023/01/09 09:32:24;;;;;;;24.65;13.10;;;;;;;7.02;100.00;99323.13;4912886;29;20102;-71
2023/01/09 09:34:49;;;;;;;32.13;14.98;;;;;;;7.21;100.00;99333.50;4917444;29;20032;-72
2023/01/09 09:37:14;;;;;;;27.30;12.13;;;;;;;7.12;100.00;99329.16;4932455;29;20040;-72
2023/01/09 09:39:40;;;;;;;28.10;13.32;;;;;;;7.05;100.00;99328.19;4921709;29;20380;-72
2023/01/09 09:45:23;;;;;;;27.60;13.55;;;;;;;6.80;100.00;99336.31;4917338;29;20046;-73
2023/01/09 09:48:05;;;;;;;31.48;11.88;;;;;;;6.73;100.00;99346.09;4924716;29;20025;-72
2023/01/09 09:50:49;;;;;;;27.73;13.50;;;;;;;6.83;100.00;99339.66;4936734;29;20167;-72
2023/01/09 09:53:21;;;;;;;30.50;12.98;;;;;;;6.99;100.00;99339.66;4931930;29;20361;-71
2023/01/09 09:55:48;;;;;;;31.95;13.25;;;;;;;6.78;100.00;99343.72;4926256;29;20027;-72
2023/01/09 09:58:32;;;;;;;31.35;11.20;;;;;;;6.73;100.00;99348.78;4924130;29;20475;-71
2023/01/09 10:01:00;;;;;;;29.17;13.05;;;;;;;6.62;100.00;99354.50;4937878;28;20028;-73
2023/01/09 10:03:32;;;;;;;28.25;11.73;;;;;;;6.75;100.00;99348.59;4909481;29;20024;-72
2023/01/09 10:05:59;;;;;;;;;;;;;;;6.67;100.00;99357.53;4915524;29;20030;-73
2023/01/09 10:08:37;;;;;;;24.92;10.20;;;;;;;6.75;100.00;99360.19;4919643;29;19910;-72
2023/01/09 10:11:07;;;;;;;31.10;10.60;;;;;;;6.62;100.00;99365.25;4924738;29;20046;-73
2023/01/09 10:16:50;;;;;;;23.20;9.98;;;;;;;6.47;100.00;99369.66;4924824;29;20070;-73
2023/01/09 10:19:36;;;;;;;22.33;10.13;;;;;;;6.61;100.00;99370.81;4908439;29;20036;-72
2023/01/09 10:22:26;;;;;;;27.42;10.50;;;;;;;6.42;100.00;99374.69;4908161;29;20047;-72
2023/01/09 10:24:51;;;;;;;22.17;9.32;;;;;;;6.48;100.00;99368.63;4911524;29;20034;-73
2023/01/09 10:27:50;;;;;;;28.75;9.13;;;;;;;6.77;100.00;99368.94;4911689;29;20032;-73
2023/01/09 10:30:31;;;;;;;26.92;12.10;;;;;;;6.52;100.00;99375.38;4904190;29;20490;-73
2023/01/09 10:33:08;;;;;;;30.38;10.52;;;;;;;6.63;100.00;99383.06;4897935;29;20046;-72
2023/01/09 10:35:57;;;;;;;30.25;10.55;;;;;;;6.35;100.00;99379.06;4911743;29;20032;-72
2023/01/09 10:38:31;;;;;;;31.15;9.60;;;;;;;6.58;100.00;99390.81;4909987;29;20047;-72
2023/01/09 10:41:11;;;;;;;30.92;10.77;;;;;;;6.37;100.00;99390.47;4897185;29;20039;-72
2023/01/09 10:43:50;;;;;;;32.25;11.18;;;;;;;6.28;100.00;99388.81;4906519;29;20023;-73
2023/01/09 10:46:33;;;;;;;33.03;10.25;;;;;;;6.25;100.00;99396.16;4919195;29;20035;-73
2023/01/09 10:49:03;;;;;;;22.92;9.02;;;;;;;6.37;100.00;99393.16;4895985;29;20034;-72
2023/01/09 10:51:48;;;;;;;30.15;8.75;;;;;;;6.38;100.00;99389.47;4901190;29;20055;-74
2023/01/09 10:54:17;;;;;;;23.17;8.15;;;;;;;6.57;100.00;99383.75;4898318;29;20587;-73
2023/01/09 10:57:06;;;;;;;20.92;8.05;;;;;;;6.50;100.00;99388.13;4897970;29;20021;-74
2023/01/09 10:59:31;;;;;;;21.83;8.10;;;;;;;6.49;100.00;99387.28;4883566;29;20031;-74
2023/01/09 11:01:57;;;;;;;35.90;8.73;;;;;;;6.63;100.00;99388.44;4918160;29;20028;-75
2023/01/09 11:04:30;;;;;;;19.90;8.02;;;;;;;6.55;100.00;99391.16;4896469;29;20084;-74
2023/01/09 11:07:10;;;;;;;21.65;6.60;;;;;;;6.53;100.00;99420.06;4903249;29;20082;-74
2023/01/09 11:09:55;;;;;;;18.17;6.35;;;;;;;6.38;100.00;99389.47;4895594;29;20024;-74
2023/01/09 11:12:26;;;;;;;29.40;9.02;;;;;;;6.40;100.00;99398.22;4900004;29;20055;-74
2023/01/09 11:14:52;;;;;;;54.77;15.13;;;;;;;6.46;100.00;99392.19;4915094;29;20519;-75
2023/01/09 11:17:25;;;;;;;20.10;7.70;;;;;;;6.54;100.00;99400.22;4905192;29;20299;-74
2023/01/09 11:20:05;;;;;;;26.90;9.57;;;;;;;6.69;100.00;99392.31;4921039;29;20064;-75
2023/01/09 11:22:48;;;;;;;28.40;8.57;;;;;;;6.80;100.00;99395.50;4925846;29;20118;-74
2023/01/09 11:25:19;;;;;;;24.00;7.75;;;;;;;6.93;100.00;99380.69;4921446;29;20067;-74
2023/01/09 11:28:03;;;;;;;26.92;8.60;;;;;;;6.76;100.00;99378.00;4925502;29;20385;-74
2023/01/09 11:30:30;;;;;;;22.73;8.50;;;;;;;7.12;100.00;99383.00;4942179;29;20090;-75
2023/01/09 11:32:56;;;;;;;27.75;6.88;;;;;;;7.05;100.00;99390.09;4921237;29;20066;-74
2023/01/09 11:35:33;;;;;;;21.75;7.18;;;;;;;7.21;100.00;99392.72;4916471;29;20186;-75
2023/01/09 11:38:16;;;;;;;24.23;7.57;;;;;;;7.29;100.00;99383.75;4917093;29;20125;-75
2023/01/09 11:40:50;;;;;;;18.02;5.30;;;;;;;7.41;100.00;99392.31;4904843;29;20028;-76
2023/01/09 11:43:37;;;;;;;18.13;4.90;;;;;;;8.00;100.00;99387.28;4915642;29;20056;-72
2023/01/09 11:46:06;;;;;;;20.65;6.22;;;;;;;8.27;100.00;99389.47;4927591;29;20043;-73
2023/01/09 11:48:53;;;;;;;22.70;6.97;;;;;;;8.06;100.00;99382.03;4923936;29;20035;-72
2023/01/09 11:51:25;;;;;;;22.80;6.40;;;;;;;7.54;100.00;99392.59;4916473;29;20025;-75
2023/01/09 11:54:24;;;;;;;35.10;6.57;;;;;;;7.55;100.00;99388.88;4923800;29;20023;-74